sensor_id;sensor_type;location;lat;lon;timestamp;P1;durP1;ratioP1;P2;durP2;ratioP2
6243;SDS011;3155;49.940;8.450;2023-09-30T00:02:34;810.60;;;690.88;;
6243;SDS011;3155;49.940;8.450;2023-09-30T00:05:03;810.17;;;709.22;;
6243;SDS011;3155;49.940;8.450;2023-09-30T00:07:31;827.78;;;737.10;;
6243;SDS011;3155;49.940;8.450;2023-09-30T00:09:58;817.00;;;709.63;;
6243;SDS011;3155;49.940;8.450;2023-09-30T00:12:26;810.13;;;711.10;;
6243;SDS011;3155;49.940;8.450;2023-09-30T00:14:53;801.65;;;672.47;;
6243;SDS011;3155;49.940;8.450;2023-09-30T00:17:20;796.22;;;604.00;;
6243;SDS011;3155;49.940;8.450;2023-09-30T00:19:51;797.63;;;606.90;;
6243;SDS011;3155;49.940;8.450;2023-09-30T00:22:20;791.72;;;594.30;;
6243;SDS011;3155;49.940;8.450;2023-09-30T00:24:50;790.90;;;638.75;;
6243;SDS011;3155;49.940;8.450;2023-09-30T00:27:17;799.60;;;666.85;;
6243;SDS011;3155;49.940;8.450;2023-09-30T00:29:48;801.88;;;678.58;;
6243;SDS011;3155;49.940;8.450;2023-09-30T00:32:15;798.75;;;693.80;;
6243;SDS011;3155;49.940;8.450;2023-09-30T00:34:42;809.90;;;710.35;;
6243;SDS011;3155;49.940;8.450;2023-09-30T00:37:09;809.25;;;708.17;;
6243;SDS011;3155;49.940;8.450;2023-09-30T00:39:36;801.63;;;698.00;;
6243;SDS011;3155;49.940;8.450;2023-09-30T00:42:03;801.00;;;676.85;;
6243;SDS011;3155;49.940;8.450;2023-09-30T00:44:31;801.28;;;684.75;;
6243;SDS011;3155;49.940;8.450;2023-09-30T00:46:59;816.30;;;726.67;;
6243;SDS011;3155;49.940;8.450;2023-09-30T00:49:26;813.90;;;724.67;;
6243;SDS011;3155;49.940;8.450;2023-09-30T00:51:55;811.88;;;670.50;;
6243;SDS011;3155;49.940;8.450;2023-09-30T00:54:27;809.60;;;679.97;;
6243;SDS011;3155;49.940;8.450;2023-09-30T00:56:56;808.70;;;675.38;;
6243;SDS011;3155;49.940;8.450;2023-09-30T00:59:28;809.40;;;687.37;;
6243;SDS011;3155;49.940;8.450;2023-09-30T01:01:57;806.78;;;686.60;;
6243;SDS011;3155;49.940;8.450;2023-09-30T01:04:29;807.47;;;701.78;;
6243;SDS011;3155;49.940;8.450;2023-09-30T01:06:59;808.27;;;702.03;;
6243;SDS011;3155;49.940;8.450;2023-09-30T01:09:26;813.97;;;699.58;;
6243;SDS011;3155;49.940;8.450;2023-09-30T01:12:07;811.17;;;674.70;;
6243;SDS011;3155;49.940;8.450;2023-09-30T01:14:35;817.03;;;672.20;;
6243;SDS011;3155;49.940;8.450;2023-09-30T01:17:06;817.08;;;678.28;;
6243;SDS011;3155;49.940;8.450;2023-09-30T01:19:40;813.17;;;676.33;;
6243;SDS011;3155;49.940;8.450;2023-09-30T01:22:10;813.28;;;683.80;;
6243;SDS011;3155;49.940;8.450;2023-09-30T01:24:41;813.70;;;682.35;;
6243;SDS011;3155;49.940;8.450;2023-09-30T01:27:09;811.97;;;683.95;;
6243;SDS011;3155;49.940;8.450;2023-09-30T01:29:36;815.83;;;688.08;;
6243;SDS011;3155;49.940;8.450;2023-09-30T01:32:06;819.65;;;704.30;;
6243;SDS011;3155;49.940;8.450;2023-09-30T01:34:36;811.08;;;689.13;;
6243;SDS011;3155;49.940;8.450;2023-09-30T01:37:03;816.17;;;705.10;;
6243;SDS011;3155;49.940;8.450;2023-09-30T01:39:33;812.83;;;703.17;;
6243;SDS011;3155;49.940;8.450;2023-09-30T01:42:00;813.00;;;701.67;;
6243;SDS011;3155;49.940;8.450;2023-09-30T01:44:27;805.72;;;692.25;;
6243;SDS011;3155;49.940;8.450;2023-09-30T01:46:54;811.05;;;696.10;;
6243;SDS011;3155;49.940;8.450;2023-09-30T01:49:22;810.13;;;707.92;;
6243;SDS011;3155;49.940;8.450;2023-09-30T01:51:50;812.75;;;700.78;;
6243;SDS011;3155;49.940;8.450;2023-09-30T01:54:17;822.47;;;680.20;;
6243;SDS011;3155;49.940;8.450;2023-09-30T01:56:48;794.25;;;555.35;;
6243;SDS011;3155;49.940;8.450;2023-09-30T01:59:16;793.58;;;575.45;;
6243;SDS011;3155;49.940;8.450;2023-09-30T02:01:43;796.90;;;590.92;;
6243;SDS011;3155;49.940;8.450;2023-09-30T02:04:12;805.70;;;627.47;;
6243;SDS011;3155;49.940;8.450;2023-09-30T02:06:43;799.30;;;629.10;;
6243;SDS011;3155;49.940;8.450;2023-09-30T02:09:10;789.40;;;621.47;;
6243;SDS011;3155;49.940;8.450;2023-09-30T02:11:39;774.70;;;582.10;;
6243;SDS011;3155;49.940;8.450;2023-09-30T02:14:07;518.83;;;425.90;;
6243;SDS011;3155;49.940;8.450;2023-09-30T02:16:38;307.38;;;280.25;;
6243;SDS011;3155;49.940;8.450;2023-09-30T02:19:06;292.42;;;266.73;;
6243;SDS011;3155;49.940;8.450;2023-09-30T02:21:33;665.20;;;604.67;;
6243;SDS011;3155;49.940;8.450;2023-09-30T02:24:01;636.53;;;570.88;;
6243;SDS011;3155;49.940;8.450;2023-09-30T02:26:31;687.28;;;618.67;;
6243;SDS011;3155;49.940;8.450;2023-09-30T02:28:58;745.17;;;624.40;;
6243;SDS011;3155;49.940;8.450;2023-09-30T02:31:26;778.50;;;622.78;;
6243;SDS011;3155;49.940;8.450;2023-09-30T02:33:53;732.23;;;624.70;;
6243;SDS011;3155;49.940;8.450;2023-09-30T02:36:24;736.85;;;621.95;;
6243;SDS011;3155;49.940;8.450;2023-09-30T02:38:51;309.75;;;282.15;;
6243;SDS011;3155;49.940;8.450;2023-09-30T02:41:21;782.15;;;626.65;;
6243;SDS011;3155;49.940;8.450;2023-09-30T02:43:48;701.42;;;626.63;;
6243;SDS011;3155;49.940;8.450;2023-09-30T02:46:16;692.42;;;621.05;;
6243;SDS011;3155;49.940;8.450;2023-09-30T02:48:43;454.83;;;412.67;;
6243;SDS011;3155;49.940;8.450;2023-09-30T02:51:10;570.03;;;516.77;;
6243;SDS011;3155;49.940;8.450;2023-09-30T02:53:38;341.33;;;309.25;;
6243;SDS011;3155;49.940;8.450;2023-09-30T02:56:05;186.50;;;171.40;;
6243;SDS011;3155;49.940;8.450;2023-09-30T02:58:33;228.00;;;209.00;;
6243;SDS011;3155;49.940;8.450;2023-09-30T03:01:00;315.60;;;286.57;;
6243;SDS011;3155;49.940;8.450;2023-09-30T03:03:27;433.13;;;389.98;;
6243;SDS011;3155;49.940;8.450;2023-09-30T03:05:55;473.55;;;427.08;;
6243;SDS011;3155;49.940;8.450;2023-09-30T03:08:23;650.47;;;594.17;;
6243;SDS011;3155;49.940;8.450;2023-09-30T03:10:51;676.53;;;618.25;;
6243;SDS011;3155;49.940;8.450;2023-09-30T03:13:21;688.20;;;628.35;;
6243;SDS011;3155;49.940;8.450;2023-09-30T03:15:50;705.90;;;640.03;;
6243;SDS011;3155;49.940;8.450;2023-09-30T03:18:20;702.65;;;637.15;;
6243;SDS011;3155;49.940;8.450;2023-09-30T03:20:59;695.70;;;628.60;;
6243;SDS011;3155;49.940;8.450;2023-09-30T03:23:29;705.92;;;639.67;;
6243;SDS011;3155;49.940;8.450;2023-09-30T03:26:00;723.13;;;649.10;;
6243;SDS011;3155;49.940;8.450;2023-09-30T03:28:27;716.53;;;640.22;;
6243;SDS011;3155;49.940;8.450;2023-09-30T03:30:55;725.78;;;632.97;;
6243;SDS011;3155;49.940;8.450;2023-09-30T03:33:23;752.72;;;642.53;;
6243;SDS011;3155;49.940;8.450;2023-09-30T03:35:50;855.83;;;629.63;;
6243;SDS011;3155;49.940;8.450;2023-09-30T03:38:18;824.58;;;640.25;;
6243;SDS011;3155;49.940;8.450;2023-09-30T03:40:46;837.45;;;644.67;;
6243;SDS011;3155;49.940;8.450;2023-09-30T03:43:15;883.63;;;640.63;;
6243;SDS011;3155;49.940;8.450;2023-09-30T03:45:43;814.33;;;655.40;;
6243;SDS011;3155;49.940;8.450;2023-09-30T03:48:10;803.42;;;651.40;;
6243;SDS011;3155;49.940;8.450;2023-09-30T03:50:37;838.80;;;658.97;;
6243;SDS011;3155;49.940;8.450;2023-09-30T03:53:05;875.85;;;629.65;;
6243;SDS011;3155;49.940;8.450;2023-09-30T03:55:33;873.72;;;640.35;;
6243;SDS011;3155;49.940;8.450;2023-09-30T03:58:03;856.15;;;663.80;;
6243;SDS011;3155;49.940;8.450;2023-09-30T04:00:30;858.67;;;664.17;;
6243;SDS011;3155;49.940;8.450;2023-09-30T04:02:58;855.72;;;625.67;;
6243;SDS011;3155;49.940;8.450;2023-09-30T04:05:25;856.60;;;630.83;;
6243;SDS011;3155;49.940;8.450;2023-09-30T04:08:00;831.28;;;637.40;;
6243;SDS011;3155;49.940;8.450;2023-09-30T04:10:27;868.60;;;608.50;;
6243;SDS011;3155;49.940;8.450;2023-09-30T04:12:57;866.72;;;632.70;;
6243;SDS011;3155;49.940;8.450;2023-09-30T04:15:25;858.53;;;606.40;;
6243;SDS011;3155;49.940;8.450;2023-09-30T04:17:52;862.93;;;621.23;;
6243;SDS011;3155;49.940;8.450;2023-09-30T04:20:19;853.92;;;609.35;;
6243;SDS011;3155;49.940;8.450;2023-09-30T04:22:49;856.28;;;611.53;;
6243;SDS011;3155;49.940;8.450;2023-09-30T04:25:17;853.03;;;599.83;;
6243;SDS011;3155;49.940;8.450;2023-09-30T04:27:46;850.67;;;623.20;;
6243;SDS011;3155;49.940;8.450;2023-09-30T04:30:15;858.20;;;614.58;;
6243;SDS011;3155;49.940;8.450;2023-09-30T04:32:43;856.30;;;625.97;;
6243;SDS011;3155;49.940;8.450;2023-09-30T04:35:10;855.22;;;622.70;;
6243;SDS011;3155;49.940;8.450;2023-09-30T04:37:37;849.40;;;611.58;;
6243;SDS011;3155;49.940;8.450;2023-09-30T04:40:05;850.63;;;622.55;;
6243;SDS011;3155;49.940;8.450;2023-09-30T04:42:36;840.95;;;630.75;;
6243;SDS011;3155;49.940;8.450;2023-09-30T04:45:03;838.60;;;627.88;;
6243;SDS011;3155;49.940;8.450;2023-09-30T04:47:33;830.25;;;630.17;;
6243;SDS011;3155;49.940;8.450;2023-09-30T04:50:01;856.35;;;638.45;;
6243;SDS011;3155;49.940;8.450;2023-09-30T04:52:34;867.92;;;623.78;;
6243;SDS011;3155;49.940;8.450;2023-09-30T04:55:01;866.65;;;634.08;;
6243;SDS011;3155;49.940;8.450;2023-09-30T04:57:30;867.90;;;618.83;;
6243;SDS011;3155;49.940;8.450;2023-09-30T04:59:58;861.67;;;634.55;;
6243;SDS011;3155;49.940;8.450;2023-09-30T05:02:25;866.67;;;639.05;;
6243;SDS011;3155;49.940;8.450;2023-09-30T05:04:53;866.30;;;632.55;;
6243;SDS011;3155;49.940;8.450;2023-09-30T05:07:20;866.47;;;634.92;;
6243;SDS011;3155;49.940;8.450;2023-09-30T05:09:50;869.13;;;638.03;;
6243;SDS011;3155;49.940;8.450;2023-09-30T05:12:17;867.55;;;636.70;;
6243;SDS011;3155;49.940;8.450;2023-09-30T05:14:52;869.15;;;639.50;;
6243;SDS011;3155;49.940;8.450;2023-09-30T05:17:24;866.05;;;637.90;;
6243;SDS011;3155;49.940;8.450;2023-09-30T05:19:51;871.38;;;651.03;;
6243;SDS011;3155;49.940;8.450;2023-09-30T05:22:19;867.72;;;646.67;;
6243;SDS011;3155;49.940;8.450;2023-09-30T05:24:51;868.85;;;659.05;;
6243;SDS011;3155;49.940;8.450;2023-09-30T05:27:22;865.67;;;666.20;;
6243;SDS011;3155;49.940;8.450;2023-09-30T05:29:49;865.53;;;649.88;;
6243;SDS011;3155;49.940;8.450;2023-09-30T05:32:16;860.33;;;648.47;;
6243;SDS011;3155;49.940;8.450;2023-09-30T05:34:47;863.47;;;655.80;;
6243;SDS011;3155;49.940;8.450;2023-09-30T05:37:14;861.03;;;658.25;;
6243;SDS011;3155;49.940;8.450;2023-09-30T05:39:41;857.17;;;656.27;;
6243;SDS011;3155;49.940;8.450;2023-09-30T05:42:10;853.35;;;661.25;;
6243;SDS011;3155;49.940;8.450;2023-09-30T05:44:38;845.47;;;657.17;;
6243;SDS011;3155;49.940;8.450;2023-09-30T05:47:05;843.08;;;657.33;;
6243;SDS011;3155;49.940;8.450;2023-09-30T05:49:32;832.15;;;661.85;;
6243;SDS011;3155;49.940;8.450;2023-09-30T05:51:59;824.38;;;644.95;;
6243;SDS011;3155;49.940;8.450;2023-09-30T05:54:26;810.42;;;646.40;;
6243;SDS011;3155;49.940;8.450;2023-09-30T05:56:54;802.30;;;637.50;;
6243;SDS011;3155;49.940;8.450;2023-09-30T05:59:22;809.13;;;625.00;;
6243;SDS011;3155;49.940;8.450;2023-09-30T06:01:51;810.42;;;626.53;;
6243;SDS011;3155;49.940;8.450;2023-09-30T06:04:22;820.47;;;636.63;;
6243;SDS011;3155;49.940;8.450;2023-09-30T06:06:49;829.70;;;644.10;;
6243;SDS011;3155;49.940;8.450;2023-09-30T06:09:19;833.70;;;647.97;;
6243;SDS011;3155;49.940;8.450;2023-09-30T06:11:51;835.08;;;653.97;;
6243;SDS011;3155;49.940;8.450;2023-09-30T06:14:18;843.70;;;647.47;;
6243;SDS011;3155;49.940;8.450;2023-09-30T06:16:45;826.13;;;662.95;;
6243;SDS011;3155;49.940;8.450;2023-09-30T06:19:14;824.08;;;672.08;;
6243;SDS011;3155;49.940;8.450;2023-09-30T06:21:41;818.25;;;674.60;;
6243;SDS011;3155;49.940;8.450;2023-09-30T06:24:09;813.67;;;675.05;;
6243;SDS011;3155;49.940;8.450;2023-09-30T06:26:36;818.78;;;677.03;;
6243;SDS011;3155;49.940;8.450;2023-09-30T06:29:03;817.75;;;679.95;;
6243;SDS011;3155;49.940;8.450;2023-09-30T06:31:33;825.15;;;671.53;;
6243;SDS011;3155;49.940;8.450;2023-09-30T06:34:00;829.75;;;683.00;;
6243;SDS011;3155;49.940;8.450;2023-09-30T06:36:27;843.40;;;674.72;;
6243;SDS011;3155;49.940;8.450;2023-09-30T06:38:55;850.65;;;679.60;;
6243;SDS011;3155;49.940;8.450;2023-09-30T06:41:22;857.55;;;681.42;;
6243;SDS011;3155;49.940;8.450;2023-09-30T06:43:49;862.47;;;663.70;;
6243;SDS011;3155;49.940;8.450;2023-09-30T06:46:18;856.47;;;632.85;;
6243;SDS011;3155;49.940;8.450;2023-09-30T06:48:45;863.17;;;664.55;;
6243;SDS011;3155;49.940;8.450;2023-09-30T06:51:12;862.85;;;658.30;;
6243;SDS011;3155;49.940;8.450;2023-09-30T06:53:41;861.35;;;651.78;;
6243;SDS011;3155;49.940;8.450;2023-09-30T06:56:08;863.60;;;628.70;;
6243;SDS011;3155;49.940;8.450;2023-09-30T06:58:35;871.25;;;664.70;;
6243;SDS011;3155;49.940;8.450;2023-09-30T07:01:02;873.28;;;657.85;;
6243;SDS011;3155;49.940;8.450;2023-09-30T07:03:30;881.30;;;672.88;;
6243;SDS011;3155;49.940;8.450;2023-09-30T07:05:59;873.97;;;653.30;;
6243;SDS011;3155;49.940;8.450;2023-09-30T07:08:29;889.25;;;684.60;;
6243;SDS011;3155;49.940;8.450;2023-09-30T07:10:57;881.13;;;625.53;;
6243;SDS011;3155;49.940;8.450;2023-09-30T07:13:24;899.08;;;666.42;;
6243;SDS011;3155;49.940;8.450;2023-09-30T07:15:51;903.00;;;673.90;;
6243;SDS011;3155;49.940;8.450;2023-09-30T07:18:19;908.35;;;683.08;;
6243;SDS011;3155;49.940;8.450;2023-09-30T07:20:46;908.97;;;688.70;;
6243;SDS011;3155;49.940;8.450;2023-09-30T07:23:13;917.15;;;693.42;;
6243;SDS011;3155;49.940;8.450;2023-09-30T07:25:45;916.80;;;703.55;;
6243;SDS011;3155;49.940;8.450;2023-09-30T07:28:16;922.63;;;696.30;;
6243;SDS011;3155;49.940;8.450;2023-09-30T07:30:43;925.40;;;699.20;;
6243;SDS011;3155;49.940;8.450;2023-09-30T07:33:11;929.13;;;708.72;;
6243;SDS011;3155;49.940;8.450;2023-09-30T07:35:38;937.10;;;699.33;;
6243;SDS011;3155;49.940;8.450;2023-09-30T07:38:05;944.75;;;717.22;;
6243;SDS011;3155;49.940;8.450;2023-09-30T07:40:32;951.55;;;725.40;;
6243;SDS011;3155;49.940;8.450;2023-09-30T07:43:00;962.50;;;732.37;;
6243;SDS011;3155;49.940;8.450;2023-09-30T07:45:27;966.83;;;748.25;;
6243;SDS011;3155;49.940;8.450;2023-09-30T07:47:55;960.88;;;748.03;;
6243;SDS011;3155;49.940;8.450;2023-09-30T07:50:25;966.50;;;756.92;;
6243;SDS011;3155;49.940;8.450;2023-09-30T07:52:52;960.70;;;770.88;;
6243;SDS011;3155;49.940;8.450;2023-09-30T07:55:19;917.42;;;758.47;;
6243;SDS011;3155;49.940;8.450;2023-09-30T07:57:47;953.28;;;763.35;;
6243;SDS011;3155;49.940;8.450;2023-09-30T08:00:25;974.40;;;772.65;;
6243;SDS011;3155;49.940;8.450;2023-09-30T08:02:52;968.85;;;758.60;;
6243;SDS011;3155;49.940;8.450;2023-09-30T08:05:19;967.28;;;757.65;;
6243;SDS011;3155;49.940;8.450;2023-09-30T08:07:47;969.72;;;767.17;;
6243;SDS011;3155;49.940;8.450;2023-09-30T08:10:14;972.25;;;770.00;;
6243;SDS011;3155;49.940;8.450;2023-09-30T08:12:48;931.22;;;780.00;;
6243;SDS011;3155;49.940;8.450;2023-09-30T08:15:16;966.00;;;783.05;;
6243;SDS011;3155;49.940;8.450;2023-09-30T08:17:43;975.40;;;784.05;;
6243;SDS011;3155;49.940;8.450;2023-09-30T08:20:11;963.65;;;774.55;;
6243;SDS011;3155;49.940;8.450;2023-09-30T08:22:39;936.35;;;756.03;;
6243;SDS011;3155;49.940;8.450;2023-09-30T08:25:10;933.58;;;754.20;;
6243;SDS011;3155;49.940;8.450;2023-09-30T08:27:37;940.50;;;757.73;;
6243;SDS011;3155;49.940;8.450;2023-09-30T08:30:05;953.28;;;766.22;;
6243;SDS011;3155;49.940;8.450;2023-09-30T08:32:34;959.75;;;770.20;;
6243;SDS011;3155;49.940;8.450;2023-09-30T08:35:02;955.07;;;771.97;;
6243;SDS011;3155;49.940;8.450;2023-09-30T08:37:29;954.17;;;768.22;;
6243;SDS011;3155;49.940;8.450;2023-09-30T08:40:00;950.65;;;764.83;;
6243;SDS011;3155;49.940;8.450;2023-09-30T08:42:27;940.45;;;757.35;;
6243;SDS011;3155;49.940;8.450;2023-09-30T08:44:59;936.28;;;757.38;;
6243;SDS011;3155;49.940;8.450;2023-09-30T08:47:26;927.67;;;739.75;;
6243;SDS011;3155;49.940;8.450;2023-09-30T08:49:54;931.00;;;754.92;;
6243;SDS011;3155;49.940;8.450;2023-09-30T08:52:26;933.88;;;753.67;;
6243;SDS011;3155;49.940;8.450;2023-09-30T08:54:53;942.83;;;761.42;;
6243;SDS011;3155;49.940;8.450;2023-09-30T08:57:20;946.70;;;771.72;;
6243;SDS011;3155;49.940;8.450;2023-09-30T08:59:49;952.20;;;779.17;;
6243;SDS011;3155;49.940;8.450;2023-09-30T09:02:16;949.70;;;770.45;;
6243;SDS011;3155;49.940;8.450;2023-09-30T09:04:44;948.63;;;775.20;;
6243;SDS011;3155;49.940;8.450;2023-09-30T09:07:12;952.83;;;779.13;;
6243;SDS011;3155;49.940;8.450;2023-09-30T09:09:39;966.65;;;792.85;;
6243;SDS011;3155;49.940;8.450;2023-09-30T09:12:15;965.47;;;793.28;;
6243;SDS011;3155;49.940;8.450;2023-09-30T09:14:45;963.67;;;790.57;;
6243;SDS011;3155;49.940;8.450;2023-09-30T09:17:13;963.83;;;784.77;;
6243;SDS011;3155;49.940;8.450;2023-09-30T09:19:42;959.75;;;783.53;;
6243;SDS011;3155;49.940;8.450;2023-09-30T09:22:09;975.42;;;798.25;;
6243;SDS011;3155;49.940;8.450;2023-09-30T09:24:36;982.13;;;806.45;;
6243;SDS011;3155;49.940;8.450;2023-09-30T09:27:13;980.70;;;798.80;;
6243;SDS011;3155;49.940;8.450;2023-09-30T09:29:43;982.67;;;808.00;;
6243;SDS011;3155;49.940;8.450;2023-09-30T09:32:14;988.50;;;819.63;;
6243;SDS011;3155;49.940;8.450;2023-09-30T09:34:42;994.17;;;826.97;;
6243;SDS011;3155;49.940;8.450;2023-09-30T09:37:14;999.67;;;830.42;;
6243;SDS011;3155;49.940;8.450;2023-09-30T09:44:53;1000.08;;;836.72;;
6243;SDS011;3155;49.940;8.450;2023-09-30T09:47:21;1003.93;;;834.37;;
6243;SDS011;3155;49.940;8.450;2023-09-30T09:49:52;1006.72;;;843.55;;
6243;SDS011;3155;49.940;8.450;2023-09-30T09:52:22;1006.33;;;841.20;;
6243;SDS011;3155;49.940;8.450;2023-09-30T09:54:50;1000.83;;;835.28;;
6243;SDS011;3155;49.940;8.450;2023-09-30T09:57:18;990.50;;;848.13;;
6243;SDS011;3155;49.940;8.450;2023-09-30T09:59:46;999.65;;;838.45;;
6243;SDS011;3155;49.940;8.450;2023-09-30T10:02:14;996.97;;;839.60;;
6243;SDS011;3155;49.940;8.450;2023-09-30T10:04:45;977.70;;;840.65;;
6243;SDS011;3155;49.940;8.450;2023-09-30T10:07:22;962.67;;;856.67;;
6243;SDS011;3155;49.940;8.450;2023-09-30T10:09:52;1021.10;;;869.35;;
6243;SDS011;3155;49.940;8.450;2023-09-30T10:12:19;993.85;;;868.22;;
6243;SDS011;3155;49.940;8.450;2023-09-30T10:14:48;1023.72;;;872.08;;
6243;SDS011;3155;49.940;8.450;2023-09-30T10:17:15;1012.47;;;854.42;;
6243;SDS011;3155;49.940;8.450;2023-09-30T10:22:36;1006.47;;;849.03;;
6243;SDS011;3155;49.940;8.450;2023-09-30T10:25:32;970.75;;;868.28;;
6243;SDS011;3155;49.940;8.450;2023-09-30T10:28:00;971.47;;;876.37;;
6243;SDS011;3155;49.940;8.450;2023-09-30T10:33:33;1003.47;;;905.80;;
6243;SDS011;3155;49.940;8.450;2023-09-30T10:36:03;1001.67;;;906.53;;
6243;SDS011;3155;49.940;8.450;2023-09-30T10:38:37;1002.85;;;906.42;;
6243;SDS011;3155;49.940;8.450;2023-09-30T10:41:06;1025.72;;;925.58;;
6243;SDS011;3155;49.940;8.450;2023-09-30T10:43:37;1030.00;;;933.67;;
6243;SDS011;3155;49.940;8.450;2023-09-30T10:48:51;1012.93;;;924.77;;
6243;SDS011;3155;49.940;8.450;2023-09-30T10:51:21;1002.47;;;916.63;;
6243;SDS011;3155;49.940;8.450;2023-09-30T10:53:52;1012.03;;;926.38;;
6243;SDS011;3155;49.940;8.450;2023-09-30T10:56:32;1038.47;;;936.33;;
6243;SDS011;3155;49.940;8.450;2023-09-30T10:59:00;1015.67;;;919.85;;
6243;SDS011;3155;49.940;8.450;2023-09-30T11:01:32;995.47;;;899.92;;
6243;SDS011;3155;49.940;8.450;2023-09-30T11:04:03;1044.32;;;918.03;;
6243;SDS011;3155;49.940;8.450;2023-09-30T11:06:34;1026.73;;;878.23;;
6243;SDS011;3155;49.940;8.450;2023-09-30T11:09:01;1014.42;;;864.42;;
6243;SDS011;3155;49.940;8.450;2023-09-30T11:11:39;1017.40;;;856.95;;
6243;SDS011;3155;49.940;8.450;2023-09-30T11:16:56;993.85;;;867.97;;
6243;SDS011;3155;49.940;8.450;2023-09-30T11:19:23;1006.22;;;881.13;;
6243;SDS011;3155;49.940;8.450;2023-09-30T11:21:52;1029.93;;;885.88;;
6243;SDS011;3155;49.940;8.450;2023-09-30T11:24:19;1021.58;;;908.65;;
6243;SDS011;3155;49.940;8.450;2023-09-30T11:26:46;1044.25;;;922.58;;
6243;SDS011;3155;49.940;8.450;2023-09-30T11:29:14;1046.70;;;924.53;;
6243;SDS011;3155;49.940;8.450;2023-09-30T11:31:43;1051.78;;;933.13;;
6243;SDS011;3155;49.940;8.450;2023-09-30T11:34:10;1049.60;;;927.22;;
6243;SDS011;3155;49.940;8.450;2023-09-30T11:36:39;1047.15;;;925.95;;
6243;SDS011;3155;49.940;8.450;2023-09-30T11:39:20;1029.72;;;906.25;;
6243;SDS011;3155;49.940;8.450;2023-09-30T11:41:48;1031.85;;;902.42;;
6243;SDS011;3155;49.940;8.450;2023-09-30T11:44:15;1015.67;;;884.58;;
6243;SDS011;3155;49.940;8.450;2023-09-30T11:46:50;1003.20;;;888.17;;
6243;SDS011;3155;49.940;8.450;2023-09-30T11:49:26;993.30;;;860.75;;
6243;SDS011;3155;49.940;8.450;2023-09-30T11:51:54;1000.30;;;865.90;;
6243;SDS011;3155;49.940;8.450;2023-09-30T11:54:21;1002.92;;;865.45;;
6243;SDS011;3155;49.940;8.450;2023-09-30T11:56:49;1012.30;;;900.20;;
6243;SDS011;3155;49.940;8.450;2023-09-30T11:59:17;1001.42;;;863.35;;
6243;SDS011;3155;49.940;8.450;2023-09-30T12:01:48;1000.70;;;859.95;;
6243;SDS011;3155;49.940;8.450;2023-09-30T12:04:36;1005.03;;;867.90;;
6243;SDS011;3155;49.940;8.450;2023-09-30T12:07:04;1009.83;;;874.08;;
6243;SDS011;3155;49.940;8.450;2023-09-30T12:09:33;1020.37;;;892.20;;
6243;SDS011;3155;49.940;8.450;2023-09-30T12:12:03;1025.63;;;902.83;;
6243;SDS011;3155;49.940;8.450;2023-09-30T12:14:31;1030.45;;;906.50;;
6243;SDS011;3155;49.940;8.450;2023-09-30T12:16:58;1021.40;;;895.38;;
6243;SDS011;3155;49.940;8.450;2023-09-30T12:19:26;1020.75;;;888.17;;
6243;SDS011;3155;49.940;8.450;2023-09-30T12:21:53;1020.33;;;882.47;;
6243;SDS011;3155;49.940;8.450;2023-09-30T12:24:20;1022.70;;;882.92;;
6243;SDS011;3155;49.940;8.450;2023-09-30T12:26:51;1021.00;;;877.78;;
6243;SDS011;3155;49.940;8.450;2023-09-30T12:29:19;1025.90;;;887.25;;
6243;SDS011;3155;49.940;8.450;2023-09-30T12:31:49;1031.30;;;900.03;;
6243;SDS011;3155;49.940;8.450;2023-09-30T12:34:19;1038.27;;;913.47;;
6243;SDS011;3155;49.940;8.450;2023-09-30T12:36:50;1053.45;;;936.78;;
6243;SDS011;3155;49.940;8.450;2023-09-30T12:39:18;1055.20;;;938.30;;
6243;SDS011;3155;49.940;8.450;2023-09-30T12:41:51;1058.97;;;941.97;;
6243;SDS011;3155;49.940;8.450;2023-09-30T12:44:18;1072.90;;;955.25;;
6243;SDS011;3155;49.940;8.450;2023-09-30T12:46:46;1052.38;;;937.42;;
6243;SDS011;3155;49.940;8.450;2023-09-30T12:49:15;1050.43;;;937.17;;
6243;SDS011;3155;49.940;8.450;2023-09-30T12:51:42;1049.50;;;933.60;;
6243;SDS011;3155;49.940;8.450;2023-09-30T12:54:09;1050.93;;;935.37;;
6243;SDS011;3155;49.940;8.450;2023-09-30T12:56:38;1056.03;;;939.30;;
6243;SDS011;3155;49.940;8.450;2023-09-30T12:59:06;1050.95;;;934.63;;
6243;SDS011;3155;49.940;8.450;2023-09-30T13:01:33;1046.07;;;930.00;;
6243;SDS011;3155;49.940;8.450;2023-09-30T13:04:02;1043.57;;;926.33;;
6243;SDS011;3155;49.940;8.450;2023-09-30T13:06:34;1039.63;;;918.20;;
6243;SDS011;3155;49.940;8.450;2023-09-30T13:09:02;1041.18;;;921.97;;
6243;SDS011;3155;49.940;8.450;2023-09-30T13:11:32;1043.07;;;919.45;;
6243;SDS011;3155;49.940;8.450;2023-09-30T13:14:02;1044.72;;;928.92;;
6243;SDS011;3155;49.940;8.450;2023-09-30T13:16:29;1046.90;;;931.40;;
6243;SDS011;3155;49.940;8.450;2023-09-30T13:18:57;1022.20;;;897.00;;
6243;SDS011;3155;49.940;8.450;2023-09-30T13:21:25;981.88;;;855.92;;
6243;SDS011;3155;49.940;8.450;2023-09-30T13:23:52;955.00;;;823.35;;
6243;SDS011;3155;49.940;8.450;2023-09-30T13:26:20;945.83;;;813.45;;
6243;SDS011;3155;49.940;8.450;2023-09-30T13:28:47;1030.78;;;918.55;;
6243;SDS011;3155;49.940;8.450;2023-09-30T13:31:14;1054.13;;;937.97;;
6243;SDS011;3155;49.940;8.450;2023-09-30T13:33:41;1048.80;;;944.95;;
6243;SDS011;3155;49.940;8.450;2023-09-30T13:36:08;1038.85;;;924.00;;
6243;SDS011;3155;49.940;8.450;2023-09-30T13:38:36;1016.58;;;888.60;;
6243;SDS011;3155;49.940;8.450;2023-09-30T13:41:03;959.85;;;831.35;;
6243;SDS011;3155;49.940;8.450;2023-09-30T13:43:31;936.30;;;803.13;;
6243;SDS011;3155;49.940;8.450;2023-09-30T13:46:02;951.45;;;815.25;;
6243;SDS011;3155;49.940;8.450;2023-09-30T13:48:30;951.10;;;812.60;;
6243;SDS011;3155;49.940;8.450;2023-09-30T13:51:04;954.63;;;808.25;;
6243;SDS011;3155;49.940;8.450;2023-09-30T13:53:33;955.90;;;808.22;;
6243;SDS011;3155;49.940;8.450;2023-09-30T13:56:00;957.63;;;811.60;;
6243;SDS011;3155;49.940;8.450;2023-09-30T13:58:27;954.20;;;806.97;;
6243;SDS011;3155;49.940;8.450;2023-09-30T14:00:54;952.67;;;805.47;;
6243;SDS011;3155;49.940;8.450;2023-09-30T14:03:24;966.28;;;819.53;;
6243;SDS011;3155;49.940;8.450;2023-09-30T14:05:52;967.00;;;821.55;;
6243;SDS011;3155;49.940;8.450;2023-09-30T14:08:19;967.55;;;823.17;;
6243;SDS011;3155;49.940;8.450;2023-09-30T14:10:46;967.92;;;817.83;;
6243;SDS011;3155;49.940;8.450;2023-09-30T14:13:16;964.53;;;817.15;;
6243;SDS011;3155;49.940;8.450;2023-09-30T14:15:43;962.03;;;812.92;;
6243;SDS011;3155;49.940;8.450;2023-09-30T14:18:10;961.22;;;805.92;;
6243;SDS011;3155;49.940;8.450;2023-09-30T14:20:38;957.60;;;800.60;;
6243;SDS011;3155;49.940;8.450;2023-09-30T14:23:06;942.47;;;781.65;;
6243;SDS011;3155;49.940;8.450;2023-09-30T14:25:33;944.10;;;779.10;;
6243;SDS011;3155;49.940;8.450;2023-09-30T14:28:00;937.10;;;764.77;;
6243;SDS011;3155;49.940;8.450;2023-09-30T14:30:30;937.30;;;765.20;;
6243;SDS011;3155;49.940;8.450;2023-09-30T14:32:57;933.73;;;756.57;;
6243;SDS011;3155;49.940;8.450;2023-09-30T14:35:24;927.60;;;754.65;;
6243;SDS011;3155;49.940;8.450;2023-09-30T14:37:52;928.03;;;762.30;;
6243;SDS011;3155;49.940;8.450;2023-09-30T14:40:20;921.97;;;743.60;;
6243;SDS011;3155;49.940;8.450;2023-09-30T14:42:51;928.28;;;757.17;;
6243;SDS011;3155;49.940;8.450;2023-09-30T14:45:19;922.03;;;750.00;;